Time;durP1;ratioP1;P1;durP2;ratioP2;P2;SDS_P1;SDS_P2;PMS_P1;PMS_P2;Temp;Humidity;BMP_temperature;BMP_pressure;BME280_temperature;BME280_humidity;BME280_pressure;Samples;Min_cycle;Max_cycle;Signal;HPM_P1;HPM_P2
2021/09/24 00:00:12;;;;;;;;;6.00;6.00;;;;;21.34;43.32;97807.97;6075195;28;96597;-63
2021/09/24 00:03:17;;;;;;;;;7.00;6.60;;;;;21.38;43.38;97814.44;6089895;28;96944;-63
2021/09/24 00:06:21;;;;;;;;;8.00;8.00;;;;;21.39;43.88;97815.25;6083124;28;97388;-63
2021/09/24 00:09:24;;;;;;;;;7.00;7.00;;;;;21.39;43.96;97805.09;6070722;28;98438;-62
2021/09/24 00:12:28;;;;;;;;;7.20;7.00;;;;;21.33;45.00;97805.53;6073290;28;97111;-61
2021/09/24 00:15:32;;;;;;;;;7.00;6.60;;;;;21.34;45.15;97807.16;6063904;28;96603;-63
2021/09/24 00:18:36;;;;;;;;;7.00;7.00;;;;;21.22;45.59;97805.03;6091261;28;98065;-60
2021/09/24 00:21:40;;;;;;;;;8.40;8.00;;;;;21.15;46.03;97804.69;6085555;28;98039;-63
2021/09/24 00:24:43;;;;;;;;;8.00;7.00;;;;;21.13;46.25;97804.16;6057430;28;97553;-63
2021/09/24 00:27:46;;;;;;;;;7.00;7.00;;;;;21.04;46.17;97804.13;6083948;28;96977;-61
2021/09/24 00:30:50;;;;;;;;;9.00;8.00;;;;;21.04;46.80;97811.53;6091602;28;96702;-63
2021/09/24 00:33:55;;;;;;;;;6.40;6.00;;;;;21.08;46.44;97805.09;6083300;28;96571;-64
2021/09/24 00:37:01;;;;;;;;;8.00;7.00;;;;;21.07;46.81;97822.66;6083418;28;97080;-62
2021/09/24 00:40:06;;;;;;;;;7.60;6.60;;;;;21.16;46.72;97823.53;6087376;28;96852;-63
2021/09/24 00:43:09;;;;;;;;;7.50;7.25;;;;;21.14;46.50;97828.53;6088173;28;96569;-61
2021/09/24 00:46:12;;;;;;;;;6.00;6.00;;;;;21.07;46.64;97839.09;6070418;28;97063;-64
2021/09/24 00:49:17;;;;;;;;;7.60;7.60;;;;;20.90;45.33;97828.06;6088230;28;96625;-63
2021/09/24 00:52:32;;;;;;;;;7.00;6.00;;;;;20.92;45.77;97834.03;6088876;28;97448;-61
2021/09/24 00:55:35;;;;;;;;;8.60;6.60;;;;;20.97;45.73;97838.56;6085544;28;97462;-64
2021/09/24 00:58:38;;;;;;;;;7.00;6.00;;;;;21.03;45.72;97851.81;6077019;28;96836;-61
2021/09/24 01:01:42;;;;;;;;;7.00;6.50;;;;;20.97;45.95;97839.38;6083318;28;96567;-61
2021/09/24 01:04:47;;;;;;;;;6.20;6.00;;;;;20.89;46.25;97828.38;6080305;28;97495;-61
2021/09/24 01:07:50;;;;;;;;;7.00;7.00;;;;;20.97;45.97;97822.94;6074664;28;98550;-64
2021/09/24 01:10:54;;;;;;;;;7.00;7.00;;;;;21.02;45.44;97805.53;6096956;28;97100;-61
2021/09/24 01:13:57;;;;;;;;;5.40;5.40;;;;;21.01;45.68;97787.50;6102276;28;96667;-60
2021/09/24 01:17:01;;;;;;;;;6.00;6.00;;;;;21.02;44.95;97789.09;6075886;28;98802;-64
2021/09/24 01:20:08;;;;;;;;;7.20;7.00;;;;;20.93;45.54;97800.03;6090478;28;96770;-64
2021/09/24 01:23:12;;;;;;;;;7.00;6.50;;;;;20.89;45.53;97781.81;6086408;28;98442;-64
2021/09/24 01:26:16;;;;;;;;;8.00;7.00;;;;;20.87;45.24;97784.84;6093036;28;97006;-60
2021/09/24 01:29:32;;;;;;;;;7.40;6.00;;;;;20.92;44.97;97778.41;6102240;28;97454;-64
2021/09/24 01:32:36;;;;;;;;;6.00;5.00;;;;;21.03;45.18;97777.03;6102067;28;96648;-60
2021/09/24 01:35:39;;;;;;;;;8.50;8.00;;;;;21.08;45.04;97790.59;6093158;28;96730;-61
2021/09/24 01:38:44;;;;;;;;;9.40;8.00;;;;;21.03;44.63;97777.03;6090214;28;96824;-62
2021/09/24 01:41:51;;;;;;;;;8.00;7.00;;;;;21.11;44.09;97796.22;6099290;28;97877;-60
2021/09/24 01:44:54;;;;;;;;;7.00;7.00;;;;;21.11;43.81;97788.00;6095665;28;97441;-61
2021/09/24 01:47:57;;;;;;;;;8.00;6.00;;;;;21.20;44.37;97784.53;6094761;28;97561;-62
2021/09/24 01:51:01;;;;;;;;;8.00;7.00;;;;;21.19;44.16;97778.25;6099483;28;97642;-61
2021/09/24 01:54:07;;;;;;;;;8.00;7.00;;;;;21.17;43.95;97777.75;6094983;28;96665;-64
2021/09/24 01:57:11;;;;;;;;;8.00;6.80;;;;;21.16;43.55;97787.91;6082620;28;96739;-60
2021/09/24 02:00:16;;;;;;;;;7.50;6.00;;;;;21.22;43.84;97776.78;6095729;28;96754;-60
2021/09/24 02:03:19;;;;;;;;;6.00;6.00;;;;;21.18;43.64;97779.38;6088763;28;96694;-63
2021/09/24 02:06:23;;;;;;;;;7.00;6.00;;;;;21.20;43.81;97774.41;6082575;28;96631;-62
2021/09/24 02:09:27;;;;;;;;;6.00;6.00;;;;;21.17;43.63;97766.78;6094169;28;97028;-60
2021/09/24 02:12:31;;;;;;;;;8.00;7.00;;;;;21.09;43.49;97781.25;6078981;28;97446;-64
2021/09/24 02:15:34;;;;;;;;;6.60;5.60;;;;;21.13;43.33;97794.03;6092695;28;97489;-61
2021/09/24 02:18:38;;;;;;;;;7.00;6.20;;;;;21.24;43.46;97804.72;6088773;28;97496;-61
2021/09/24 02:21:41;;;;;;;;;9.00;8.00;;;;;21.36;43.33;97796.66;6083084;28;97951;-62
2021/09/24 02:24:46;;;;;;;;;6.00;6.00;;;;;21.47;43.65;97800.75;6082107;28;96451;-61
2021/09/24 02:27:49;;;;;;;;;6.00;6.00;;;;;21.55;43.22;97798.00;6087812;28;97557;-64
2021/09/24 02:30:53;;;;;;;;;8.00;8.00;;;;;21.66;42.91;97816.91;6086814;28;96643;-64
2021/09/24 02:33:56;;;;;;;;;5.00;5.00;;;;;21.65;43.19;97818.06;6089673;28;96622;-62
2021/09/24 02:36:59;;;;;;;;;6.80;6.00;;;;;21.58;42.94;97827.56;6089731;28;97087;-61
2021/09/24 02:40:05;;;;;;;;;6.00;6.00;;;;;21.51;42.92;97834.63;6077099;28;97454;-64
2021/09/24 02:43:08;;;;;;;;;7.00;7.00;;;;;21.50;43.29;97853.00;6065753;28;97849;-60
2021/09/24 02:46:12;;;;;;;;;7.00;7.00;;;;;21.66;43.72;97878.06;6091817;28;97319;-63
2021/09/24 02:49:15;;;;;;;;;7.00;6.20;;;;;21.83;43.60;97869.09;6103922;28;97377;-64
2021/09/24 02:52:18;;;;;;;;;6.40;6.40;;;;;21.89;43.82;97878.81;6089002;28;97129;-64
2021/09/24 02:55:23;;;;;;;;;5.00;4.60;;;;;21.87;43.32;97898.31;6097293;28;97510;-61
2021/09/24 02:58:27;;;;;;;;;4.00;4.00;;;;;21.54;44.12;97875.97;6103223;28;96596;-60
2021/09/24 03:01:30;;;;;;;;;4.00;4.00;;;;;21.44;44.12;97905.59;6073557;28;97910;-60
2021/09/24 03:04:34;;;;;;;;;2.80;2.00;;;;;21.29;44.82;97897.78;6069453;28;97957;-63
2021/09/24 03:07:37;;;;;;;;;2.00;2.00;;;;;21.18;45.15;97895.31;6087593;28;97107;-62
2021/09/24 03:10:42;;;;;;;;;2.50;2.00;;;;;21.12;45.12;97915.69;6083625;28;96811;-62
2021/09/24 03:13:45;;;;;;;;;2.00;2.00;;;;;;;;6068636;28;98037;-64
2021/09/24 03:16:49;;;;;;;;;2.40;2.00;;;;;20.83;48.21;97930.97;6086353;28;96351;-64
2021/09/24 03:19:52;;;;;;;;;3.00;2.40;;;;;20.81;48.43;97930.50;6068617;28;97715;-62
2021/09/24 03:22:56;;;;;;;;;2.00;2.00;;;;;20.74;48.34;97939.94;6087151;28;98402;-61
2021/09/24 03:26:00;;;;;;;;;3.00;2.00;;;;;20.65;48.65;97935.53;6085711;28;96991;-60
2021/09/24 03:29:04;;;;;;;;;2.00;2.00;;;;;20.56;49.23;97934.66;6097284;28;97464;-60
2021/09/24 03:32:08;;;;;;;;;2.00;2.00;;;;;20.46;49.47;97941.16;6091966;28;97522;-62
2021/09/24 03:35:13;;;;;;;;;1.00;1.00;;;;;20.49;49.84;97937.81;6091473;28;97155;-60
2021/09/24 03:38:16;;;;;;;;;4.00;3.00;;;;;20.48;49.79;97943.56;6093544;28;97035;-60
2021/09/24 03:41:21;;;;;;;;;4.00;4.00;;;;;20.46;49.82;97954.84;6075025;28;97974;-63
2021/09/24 03:44:24;;;;;;;;;3.00;3.00;;;;;20.27;50.32;97954.16;6090125;28;97320;-62
2021/09/24 03:47:27;;;;;;;;;5.00;4.00;;;;;20.27;50.85;97954.16;6090092;28;97493;-62
2021/09/24 03:50:31;;;;;;;;;3.00;3.00;;;;;20.24;50.61;97958.31;6090814;28;97493;-60
2021/09/24 03:53:35;;;;;;;;;2.80;2.00;;;;;20.14;51.03;97955.78;6073120;28;97202;-62
2021/09/24 03:56:39;;;;;;;;;2.00;2.00;;;;;20.11;50.86;97945.47;6097380;28;96855;-59
2021/09/24 03:59:43;;;;;;;;;2.00;2.00;;;;;20.05;50.53;97960.38;6104671;28;97468;-61
2021/09/24 04:02:46;;;;;;;;;3.00;2.00;;;;;19.97;49.74;97966.56;6068267;28;97308;-60
2021/09/24 04:05:50;;;;;;;;;1.60;1.60;;;;;19.80;49.85;97966.34;6061910;28;97160;-60
2021/09/24 04:08:54;;;;;;;;;3.00;3.00;;;;;19.78;49.49;97971.31;6073942;28;97532;-62
2021/09/24 04:11:58;;;;;;;;;1.00;1.00;;;;;19.75;49.31;97967.25;6090002;28;96618;-60
2021/09/24 04:15:02;;;;;;;;;2.00;2.00;;;;;19.66;49.51;97969.06;6052889;28;97271;-60
2021/09/24 04:18:05;;;;;;;;;2.00;2.00;;;;;19.64;49.45;97968.59;6080156;28;96697;-61
2021/09/24 04:21:09;;;;;;;;;2.80;1.80;;;;;19.43;49.67;97978.22;6090249;28;96624;-61
2021/09/24 04:24:12;;;;;;;;;3.50;2.25;;;;;19.40;49.36;97985.09;6069653;28;97429;-60
2021/09/24 04:27:17;;;;;;;;;2.00;2.00;;;;;19.36;49.64;97994.19;6091037;28;96782;-60
2021/09/24 04:30:20;;;;;;;;;1.00;1.00;;;;;19.28;49.54;97998.44;6090144;28;97016;-61
2021/09/24 04:33:24;;;;;;;;;2.00;1.60;;;;;19.34;49.52;98000.00;6091420;28;96584;-60
2021/09/24 04:36:27;;;;;;;;;2.60;2.20;;;;;19.27;49.73;98012.41;6074087;28;96552;-60
2021/09/24 04:39:30;;;;;;;;;1.00;1.00;;;;;19.21;49.83;98016.31;6090709;28;97543;-62
2021/09/24 04:42:35;;;;;;;;;2.40;2.40;;;;;19.29;49.38;98016.47;6091333;28;96713;-64
2021/09/24 04:45:38;;;;;;;;;2.00;2.00;;;;;19.33;49.22;98017.50;6095061;28;96485;-63
2021/09/24 04:48:42;;;;;;;;;2.00;2.00;;;;;19.23;48.73;98004.00;6095342;28;97326;-61
2021/09/24 04:51:45;;;;;;;;;2.00;2.00;;;;;19.22;49.04;98016.03;6094590;28;97503;-62
2021/09/24 04:54:48;;;;;;;;;4.00;3.00;;;;;19.24;48.87;98018.47;6093647;28;96833;-61
2021/09/24 04:57:53;;;;;;;;;3.00;2.00;;;;;19.22;48.52;98018.75;6093601;28;96670;-61
2021/09/24 05:00:56;;;;;;;;;2.00;2.00;;;;;19.25;48.51;98018.19;6087033;28;97536;-61
2021/09/24 05:04:00;;;;;;;;;2.20;1.80;;;;;19.29;48.14;98026.59;6085951;28;96636;-60
2021/09/24 05:07:03;;;;;;;;;2.60;2.60;;;;;19.24;48.38;98027.50;6081995;28;96601;-60
2021/09/24 05:10:08;;;;;;;;;3.40;3.00;;;;;19.24;48.13;98034.88;6066580;28;98115;-60
2021/09/24 05:13:13;;;;;;;;;2.00;2.00;;;;;19.33;47.95;98033.06;6086730;28;97401;-63
2021/09/24 05:16:16;;;;;;;;;3.00;2.00;;;;;19.32;47.39;98034.19;6074590;28;96675;-61
2021/09/24 05:19:20;;;;;;;;;4.00;4.00;;;;;19.32;46.86;98039.63;6088194;28;97419;-60
2021/09/24 05:22:23;;;;;;;;;3.00;3.00;;;;;19.25;46.97;98045.50;6088548;28;96678;-61
2021/09/24 05:25:27;;;;;;;;;3.60;3.00;;;;;19.27;47.08;98047.91;6070409;28;97317;-61
2021/09/24 05:28:32;;;;;;;;;2.00;2.00;;;;;19.30;46.79;98048.13;6070693;28;97484;-63
2021/09/24 05:31:36;;;;;;;;;3.00;2.00;;;;;19.28;46.64;98057.75;6087293;28;96986;-61
2021/09/24 05:34:39;;;;;;;;;4.00;4.00;;;;;19.17;46.90;98053.56;6058154;28;97065;-60
2021/09/24 05:37:43;;;;;;;;;2.00;2.00;;;;;19.08;46.80;98045.22;6088491;28;97459;-60
2021/09/24 05:40:49;;;;;;;;;2.00;2.00;;;;;19.17;46.97;98050.81;6089231;28;97510;-61
2021/09/24 05:43:54;;;;;;;;;1.20;1.20;;;;;19.08;47.26;98050.69;6093599;28;96724;-59
2021/09/24 05:46:58;;;;;;;;;3.00;3.00;;;;;19.13;47.24;98041.59;6096291;28;97146;-59
2021/09/24 05:50:01;;;;;;;;;3.00;3.00;;;;;19.26;47.11;98051.75;6086284;28;96774;-63
2021/09/24 05:53:04;;;;;;;;;2.00;2.00;;;;;19.36;47.15;98057.88;6087061;28;96554;-63
2021/09/24 05:56:08;;;;;;;;;3.00;3.00;;;;;19.31;47.03;98060.69;6081608;28;96531;-60
2021/09/24 05:59:12;;;;;;;;;2.00;2.00;;;;;19.22;47.42;98048.00;6102698;28;97838;-63
2021/09/24 06:02:15;;;;;;;;;2.00;2.00;;;;;19.38;46.82;98057.59;6088749;28;97302;-60
2021/09/24 06:05:19;;;;;;;;;2.00;2.00;;;;;19.48;47.10;98076.59;6083650;28;96602;-62
2021/09/24 06:08:23;;;;;;;;;2.80;2.00;;;;;19.36;47.14;98076.19;6102005;28;97396;-63
2021/09/24 06:11:27;;;;;;;;;2.00;2.00;;;;;19.44;47.14;98086.50;6070654;28;97515;-59
2021/09/24 06:14:31;;;;;;;;;2.00;2.00;;;;;19.52;46.67;98079.53;6099065;28;97492;-60
2021/09/24 06:17:34;;;;;;;;;3.00;3.00;;;;;19.35;47.04;98093.72;6088426;28;97171;-60
2021/09/24 06:20:38;;;;;;;;;3.00;2.60;;;;;19.32;46.59;98110.69;6099110;28;97120;-59
2021/09/24 06:23:42;;;;;;;;;2.00;2.00;;;;;19.27;46.73;98121.72;6094782;28;96501;-61
2021/09/24 06:26:45;;;;;;;;;4.00;3.00;;;;;19.27;46.77;98124.44;6082432;28;97564;-60
2021/09/24 06:29:54;;;;;;;;;5.40;5.00;;;;;19.32;46.24;98138.03;6079790;28;97016;-58
2021/09/24 06:32:57;;;;;;;;;3.00;2.00;;;;;19.31;46.42;98145.41;6094391;28;97242;-60
2021/09/24 06:36:00;;;;;;;;;3.75;3.00;;;;;19.27;46.10;98152.59;6088208;28;96747;-58
2021/09/24 06:39:04;;;;;;;;;5.00;5.00;;;;;19.26;45.79;98144.66;6079073;28;96945;-62
2021/09/24 06:42:09;;;;;;;;;4.00;4.00;;;;;19.30;45.45;98140.25;6076663;28;96547;-61
2021/09/24 06:45:14;;;;;;;;;4.00;4.00;;;;;19.29;45.48;98144.91;6074331;28;97497;-60
2021/09/24 06:48:17;;;;;;;;;4.00;3.00;;;;;19.33;45.67;98154.13;6075943;28;96854;-60
2021/09/24 06:51:22;;;;;;;;;3.00;3.00;;;;;19.28;45.33;98148.75;6078936;28;97055;-60
2021/09/24 06:54:27;;;;;;;;;3.00;2.00;;;;;19.27;45.69;98159.97;6091115;28;96898;-59
2021/09/24 06:57:30;;;;;;;;;4.00;3.00;;;;;19.19;45.89;98161.47;6105013;28;97492;-61
2021/09/24 07:00:35;;;;;;;;;4.00;2.60;;;;;19.25;45.88;98165.75;6089687;28;97458;-61
2021/09/24 07:03:38;;;;;;;;;4.60;4.00;;;;;19.23;45.48;98173.41;6093421;28;98153;-62
2021/09/24 07:06:43;;;;;;;;;4.00;3.00;;;;;19.16;45.84;98155.75;6091772;28;98170;-60
2021/09/24 07:09:46;;;;;;;;;4.00;3.00;;;;;19.02;45.78;98164.69;6073742;28;96686;-61
2021/09/24 07:12:49;;;;;;;;;4.00;3.00;;;;;19.06;45.94;98164.13;6099620;28;96530;-62
2021/09/24 07:15:54;;;;;;;;;3.00;3.00;;;;;18.93;46.62;98158.25;6072130;28;96871;-61
2021/09/24 07:18:57;;;;;;;;;2.00;2.00;;;;;18.84;46.98;98160.00;6080234;28;97257;-62
2021/09/24 07:22:01;;;;;;;;;4.00;4.00;;;;;18.94;46.79;98165.34;6063560;28;96503;-62
2021/09/24 07:25:05;;;;;;;;;4.00;3.20;;;;;18.90;47.23;98161.59;6085620;28;97300;-62
2021/09/24 07:28:09;;;;;;;;;3.00;3.00;;;;;19.07;47.39;98174.72;6083317;28;96490;-61
2021/09/24 07:31:14;;;;;;;;;4.80;3.00;;;;;19.13;47.58;98180.94;6080559;28;96830;-62
2021/09/24 07:34:17;;;;;;;;;5.00;4.00;;;;;19.10;47.77;98182.34;6092190;28;97360;-60
2021/09/24 07:37:20;;;;;;;;;6.00;5.00;;;;;19.24;47.17;98182.44;6092333;28;96991;-62
2021/09/24 07:40:24;;;;;;;;;5.40;4.00;;;;;19.39;46.52;98191.22;6092613;28;96590;-60
2021/09/24 07:43:27;;;;;;;;;5.00;4.00;;;;;19.50;46.54;98210.25;6092411;28;96783;-61
2021/09/24 07:46:35;;;;;;;;;3.00;3.00;;;;;19.45;46.77;98197.44;6075322;28;96621;-61
2021/09/24 07:49:38;;;;;;;;;4.00;4.00;;;;;19.52;46.28;98183.41;6092434;28;98041;-60
2021/09/24 07:52:42;;;;;;;;;4.00;4.00;;;;;19.69;46.29;98206.41;6092472;28;96450;-60
2021/09/24 07:55:45;;;;;;;;;5.00;4.00;;;;;19.76;46.15;98203.28;6074113;28;96721;-62
2021/09/24 07:58:48;;;;;;;;;5.60;4.00;;;;;19.70;45.96;98179.84;6092247;28;97437;-60
2021/09/24 08:01:53;;;;;;;;;4.00;4.00;;;;;19.94;45.71;98196.16;6092459;28;96618;-60
2021/09/24 08:04:57;;;;;;;;;4.50;4.00;;;;;20.00;45.22;98201.22;6091440;28;97670;-62
2021/09/24 08:08:00;;;;;;;;;4.00;4.00;;;;;19.85;45.30;98188.63;6091863;28;96537;-62
2021/09/24 08:11:05;;;;;;;;;5.00;4.60;;;;;20.02;45.17;98206.41;6080439;28;98843;-62
2021/09/24 08:14:08;;;;;;;;;7.40;7.00;;;;;19.87;44.70;98211.03;6068006;28;96860;-62
2021/09/24 08:17:13;;;;;;;;;6.00;5.00;;;;;19.98;44.10;98210.84;6090820;28;97490;-62
2021/09/24 08:20:16;;;;;;;;;4.00;4.00;;;;;20.02;43.76;98209.97;6091876;28;96511;-60
2021/09/24 08:23:20;;;;;;;;;4.00;3.20;;;;;20.19;43.30;98214.84;6091959;28;96565;-61
2021/09/24 08:26:24;;;;;;;;;5.40;4.00;;;;;20.21;42.26;98199.78;6091084;28;96519;-62
2021/09/24 08:29:28;;;;;;;;;6.00;4.80;;;;;20.47;41.56;98219.34;6091565;28;96686;-59
2021/09/24 08:32:36;;;;;;;;;5.00;4.00;;;;;20.44;41.68;98225.38;6073889;28;99764;-60
2021/09/24 08:35:39;;;;;;;;;6.00;4.00;;;;;20.41;41.14;98223.25;6090937;28;97046;-66
2021/09/24 08:38:43;;;;;;;;;4.00;4.00;;;;;20.48;40.52;98229.16;6090990;28;97405;-62
2021/09/24 08:41:46;;;;;;;;;3.60;3.00;;;;;20.28;40.83;98218.56;6074024;28;96622;-62
2021/09/24 08:44:50;;;;;;;;;4.25;4.25;;;;;20.36;41.30;98241.72;6091507;28;96751;-62
2021/09/24 08:47:56;;;;;;;;;4.00;3.00;;;;;20.39;41.26;98249.31;6091324;28;97592;-61
2021/09/24 08:50:59;;;;;;;;;3.00;3.00;;;;;20.52;40.97;98263.03;6094917;28;97448;-62
2021/09/24 08:54:03;;;;;;;;;3.00;2.75;;;;;20.40;40.41;98256.41;6085084;28;98086;-61
2021/09/24 08:57:10;;;;;;;;;4.00;3.60;;;;;20.46;40.22;98250.56;6066316;28;96959;-61
2021/09/24 09:00:15;;;;;;;;;4.00;3.40;;;;;20.68;39.19;98271.78;6067742;28;97511;-60
2021/09/24 09:03:20;;;;;;;;;3.00;3.00;;;;;20.90;39.72;98260.13;6065193;28;99769;-63
2021/09/24 09:06:29;;;;;;;;;2.50;2.00;;;;;21.00;39.54;98263.50;6067498;28;96561;-63
2021/09/24 09:09:33;;;;;;;;;5.40;4.00;;;;;20.74;39.54;98271.38;6066896;28;97563;-60
2021/09/24 09:12:37;;;;;;;;;4.00;4.00;;;;;20.87;39.29;98279.91;6065452;28;97468;-62
2021/09/24 09:15:40;;;;;;;;;4.00;4.00;;;;;20.86;39.49;98281.06;6067493;28;97485;-62
2021/09/24 09:18:47;;;;;;;;;4.40;4.00;;;;;20.75;39.68;98286.72;6056746;28;96613;-61
2021/09/24 09:21:50;;;;;;;;;4.00;4.00;;;;;20.70;39.92;98292.28;6065818;28;96921;-61
2021/09/24 09:24:53;;;;;;;;;4.00;3.00;;;;;20.71;39.85;98298.59;6066908;28;96632;-62
2021/09/24 09:27:58;;;;;;;;;3.60;3.00;;;;;20.60;39.68;98295.22;6066491;28;96795;-63
2021/09/24 09:31:15;;;;;;;;;5.00;5.00;;;;;20.57;39.64;98295.81;6067225;28;96970;-61
2021/09/24 09:34:32;;;;;;;;;4.00;4.00;;;;;20.58;39.95;98296.59;6056065;28;97488;-64
2021/09/24 09:37:37;;;;;;;;;3.00;3.00;;;;;20.49;39.88;98299.22;6065488;28;97051;-62
2021/09/24 09:40:40;;;;;;;;;5.00;3.00;;;;;20.68;39.90;98299.16;6066631;28;97665;-60
2021/09/24 09:43:46;;;;;;;;;3.40;3.40;;;;;20.79;39.44;98297.88;6066582;28;96522;-62
2021/09/24 09:46:49;;;;;;;;;3.75;2.75;;;;;20.94;39.39;98297.59;6065214;28;97348;-60
2021/09/24 09:50:09;;;;;;;;;5.00;5.00;;;;;21.13;39.12;98301.09;6064918;28;97517;-61
2021/09/24 09:53:15;;;;;;;;;4.00;4.00;;;;;21.07;39.13;98305.00;6066871;28;97442;-63
2021/09/24 09:56:19;;;;;;;;;4.00;3.00;;;;;21.22;38.81;98311.31;6081246;28;96969;-62
2021/09/24 09:59:24;;;;;;;;;4.00;3.00;;;;;21.38;38.64;98307.16;6072959;28;97068;-63
2021/09/24 10:02:31;;;;;;;;;4.50;4.00;;;;;21.47;38.82;98310.81;6083727;28;96727;-63
2021/09/24 10:05:39;;;;;;;;;4.60;4.40;;;;;21.52;38.52;98322.50;6072451;28;97879;-61
2021/09/24 10:08:42;;;;;;;;;4.00;4.00;;;;;21.51;39.04;98337.31;6090305;28;97475;-61
2021/09/24 10:11:45;;;;;;;;;4.00;3.50;;;;;21.47;38.98;98325.34;6089574;28;97260;-60
2021/09/24 10:14:49;;;;;;;;;3.00;3.00;;;;;21.35;38.20;98352.47;6089154;28;97536;-61
2021/09/24 10:17:53;;;;;;;;;4.20;4.00;;;;;21.14;38.41;98332.03;6089220;28;97143;-61
2021/09/24 10:20:58;;;;;;;;;4.40;4.40;;;;;21.46;38.65;98353.88;6089531;28;96626;-60
2021/09/24 10:24:01;;;;;;;;;6.00;5.00;;;;;22.28;36.99;98353.75;6089906;28;97010;-60
2021/09/24 10:27:07;;;;;;;;;3.67;3.00;;;;;22.36;36.46;98353.00;6089188;28;97544;-62
2021/09/24 10:30:13;;;;;;;;;5.25;5.00;;;;;22.61;36.72;98359.00;6071575;28;96775;-60
2021/09/24 10:33:18;;;;;;;;;1.80;1.80;;;;;22.91;35.47;98349.22;6090265;28;96701;-60
2021/09/24 10:36:42;;;;;;;;;4.00;4.00;;;;;22.95;35.54;98359.25;6089098;28;97562;-63
2021/09/24 10:39:47;;;;;;;;;3.20;3.00;;;;;22.85;35.38;98376.00;6089075;28;97410;-61
2021/09/24 10:42:53;;;;;;;;;3.00;3.00;;;;;22.71;35.34;98356.03;6094647;28;97433;-62
2021/09/24 10:45:56;;;;;;;;;4.50;3.25;;;;;22.42;35.86;98360.00;6093588;28;96971;-60
2021/09/24 10:49:31;;;;;;;;;3.40;3.40;;;;;22.28;36.40;98366.69;6093498;28;96791;-65
2021/09/24 10:53:13;;;;;;;;;3.00;3.00;;;;;22.25;36.31;98356.28;6091091;28;97471;-61
2021/09/24 10:56:33;;;;;;;;;4.00;3.00;;;;;22.16;36.32;98363.66;6055548;28;98546;-60
2021/09/24 10:59:36;;;;;;;;;2.00;2.00;;;;;22.15;36.51;98354.59;6089726;28;96637;-60
2021/09/24 11:02:41;;;;;;;;;4.80;4.00;;;;;22.04;36.24;98358.69;6090740;28;97734;-60
2021/09/24 11:05:57;;;;;;;;;3.00;2.00;;;;;22.17;36.39;98359.78;6091653;28;97536;-62
2021/09/24 11:09:03;;;;;;;;;3.80;3.00;;;;;22.18;36.64;98367.72;6089758;28;97490;-61
2021/09/24 11:12:07;;;;;;;;;4.00;3.00;;;;;21.98;36.28;98369.00;6089729;28;97452;-62
2021/09/24 11:15:12;;;;;;;;;3.75;2.75;;;;;21.87;36.79;98373.03;6091072;28;97551;-61
2021/09/24 11:18:50;;;;;;;;;2.60;2.60;;;;;21.78;37.11;98369.41;6088118;28;97643;-63
2021/09/24 11:22:12;;;;;;;;;3.00;3.00;;;;;21.84;36.78;98364.63;6072835;28;97530;-61
2021/09/24 11:25:16;;;;;;;;;4.00;4.00;;;;;21.89;36.57;98370.00;6089168;28;96792;-59
2021/09/24 11:28:33;;;;;;;;;4.00;3.80;;;;;22.13;36.64;98384.31;6089775;28;97540;-62
2021/09/24 11:32:05;;;;;;;;;2.00;2.00;;;;;21.99;36.18;98365.09;6088197;28;97237;-62
2021/09/24 11:35:09;;;;;;;;;3.00;3.00;;;;;21.90;36.66;98368.84;6090646;28;97277;-60
2021/09/24 11:38:17;;;;;;;;;4.00;3.00;;;;;21.81;36.66;98370.72;6091222;28;96968;-61
2021/09/24 11:41:22;;;;;;;;;2.00;2.00;;;;;21.66;36.22;98360.06;6089053;28;96983;-59
2021/09/24 11:44:26;;;;;;;;;2.00;2.00;;;;;21.75;36.43;98363.69;6090875;28;98121;-61
2021/09/24 11:47:33;;;;;;;;;7.00;6.00;;;;;21.80;36.48;98371.81;6074164;28;97368;-59
2021/09/24 11:50:38;;;;;;;;;6.00;5.00;;;;;21.70;36.56;98369.31;6090144;28;96641;-63
2021/09/24 11:53:46;;;;;;;;;4.00;3.40;;;;;21.77;36.53;98367.78;6089170;28;96712;-63
2021/09/24 11:56:51;;;;;;;;;4.00;3.20;;;;;21.80;35.99;98358.09;6070167;28;99570;-62
2021/09/24 11:59:54;;;;;;;;;4.00;4.00;;;;;22.00;36.57;98368.66;6090411;28;96730;-59
2021/09/24 12:03:12;;;;;;;;;3.80;3.00;;;;;21.99;36.39;98369.81;6089671;28;97615;-60
2021/09/24 12:06:16;;;;;;;;;4.00;4.00;;;;;21.99;36.21;98372.56;6089570;28;96687;-60
2021/09/24 12:09:22;;;;;;;;;3.50;3.00;;;;;22.02;36.32;98375.50;6087024;28;97205;-63
2021/09/24 12:12:27;;;;;;;;;4.00;3.00;;;;;22.10;35.92;98365.69;6089616;28;97494;-60
2021/09/24 12:15:49;;;;;;;;;4.00;3.20;;;;;22.15;36.13;98364.78;6072499;28;97556;-61
2021/09/24 12:18:55;;;;;;;;;3.40;3.00;;;;;22.44;35.65;98366.00;6089870;28;97343;-62
2021/09/24 12:22:02;;;;;;;;;4.00;3.25;;;;;22.65;35.57;98366.31;6088298;28;97263;-59
2021/09/24 12:25:15;;;;;;;;;4.60;4.00;;;;;22.72;35.26;98363.97;6056555;28;97327;-59
2021/09/24 12:28:20;;;;;;;;;2.50;2.50;;;;;22.78;34.79;98370.94;6088039;28;97214;-63
2021/09/24 12:31:34;;;;;;;;;3.00;3.00;;;;;22.92;35.27;98370.06;6090054;28;96945;-63
2021/09/24 12:34:43;;;;;;;;;3.00;3.00;;;;;23.07;34.31;98373.22;6078103;28;97763;-60
2021/09/24 12:37:47;;;;;;;;;3.00;3.00;;;;;23.70;34.50;98381.09;6078443;28;97072;-61
2021/09/24 12:41:06;;;;;;;;;3.25;3.00;;;;;23.85;32.77;98381.81;6080341;28;97551;-62
2021/09/24 12:44:11;;;;;;;;;3.00;2.00;;;;;23.78;32.90;98389.72;6090898;28;97427;-64
2021/09/24 12:47:21;;;;;;;;;4.00;3.40;;;;;23.79;32.41;98391.34;6089736;28;97247;-61
2021/09/24 12:50:24;;;;;;;;;3.00;2.00;;;;;23.75;32.99;98380.94;6075646;28;97176;-59
2021/09/24 12:53:31;;;;;;;;;4.00;3.00;;;;;23.97;32.70;98374.53;6091189;28;97371;-60
2021/09/24 12:56:35;;;;;;;;;4.25;4.00;;;;;24.18;32.20;98380.28;6066990;28;96806;-61
2021/09/24 12:59:40;;;;;;;;;4.00;4.00;;;;;24.27;32.23;98378.31;6083572;28;96684;-62
2021/09/24 13:02:44;;;;;;;;;4.00;3.40;;;;;24.14;32.10;98373.75;6090453;28;96780;-62
2021/09/24 13:05:48;;;;;;;;;4.40;4.00;;;;;23.97;31.82;98388.31;6101295;28;97460;-62
2021/09/24 13:08:53;;;;;;;;;5.40;4.00;;;;;23.83;32.24;98381.31;6102880;28;97208;-63
2021/09/24 13:11:56;;;;;;;;;3.00;2.80;;;;;23.98;32.78;98378.09;6093559;28;97415;-63
2021/09/24 13:15:02;;;;;;;;;3.60;3.00;;;;;24.00;31.94;98397.84;6095000;28;98166;-61
2021/09/24 13:18:07;;;;;;;;;2.00;2.00;;;;;24.02;31.93;98387.34;6093755;28;96532;-62
2021/09/24 13:21:10;;;;;;;;;5.00;4.00;;;;;23.94;31.51;98388.97;6089090;28;98382;-62
2021/09/24 13:24:14;;;;;;;;;4.00;3.00;;;;;23.95;31.78;98379.53;6087213;28;96762;-60
2021/09/24 13:27:17;;;;;;;;;2.75;2.75;;;;;23.93;31.95;98392.84;6084673;28;96623;-61
2021/09/24 13:30:22;;;;;;;;;5.00;4.00;;;;;23.65;31.53;98391.47;6089075;28;96612;-64
2021/09/24 13:33:25;;;;;;;;;3.00;3.00;;;;;23.70;31.84;98405.88;6070814;28;96689;-61
2021/09/24 13:36:28;;;;;;;;;4.00;3.00;;;;;23.82;31.52;98398.94;6090746;28;97351;-63
2021/09/24 13:39:33;;;;;;;;;4.40;4.00;;;;;23.93;31.29;98403.84;6091461;28;97377;-64
2021/09/24 13:42:37;;;;;;;;;3.60;3.00;;;;;23.92;31.62;98391.22;6088805;28;96930;-63
2021/09/24 13:45:42;;;;;;;;;5.00;4.25;;;;;23.83;31.76;98398.63;6088259;28;97406;-61
2021/09/24 13:48:46;;;;;;;;;3.00;3.00;;;;;23.90;31.27;98398.97;6071870;28;97557;-64
2021/09/24 13:51:50;;;;;;;;;5.00;4.00;;;;;23.81;31.68;98400.88;6088788;28;97250;-61
2021/09/24 13:54:53;;;;;;;;;6.00;4.00;;;;;23.88;31.65;98403.19;6067597;28;97950;-61
2021/09/24 13:57:57;;;;;;;;;3.00;3.00;;;;;23.81;31.56;98411.09;6087431;28;97162;-62
2021/09/24 14:01:01;;;;;;;;;2.80;2.80;;;;;23.84;31.48;98407.72;6087931;28;96728;-64
2021/09/24 14:04:05;;;;;;;;;4.00;4.00;;;;;23.77;31.51;98410.09;6087758;28;96812;-62
2021/09/24 14:07:09;;;;;;;;;4.00;4.00;;;;;23.78;31.71;98395.22;6063116;28;99658;-61
2021/09/24 14:10:15;;;;;;;;;2.75;2.75;;;;;23.80;31.66;98403.97;6077747;28;97454;-64
2021/09/24 14:13:19;;;;;;;;;4.00;4.00;;;;;23.67;32.02;98413.97;6067613;28;96796;-63
2021/09/24 14:16:23;;;;;;;;;4.00;3.00;;;;;23.35;32.46;98406.84;6092181;28;96661;-63
2021/09/24 14:19:27;;;;;;;;;4.00;3.00;;;;;23.26;32.48;98412.28;6100444;28;97455;-63
2021/09/24 14:22:30;;;;;;;;;4.00;4.00;;;;;23.23;32.89;98409.38;6066675;28;98151;-62
2021/09/24 14:25:34;;;;;;;;;4.00;3.60;;;;;23.26;33.27;98411.50;6066807;28;98038;-64
2021/09/24 14:28:37;;;;;;;;;3.00;3.00;;;;;23.18;32.97;98406.75;6080532;28;96885;-61
2021/09/24 14:31:42;;;;;;;;;3.40;3.00;;;;;23.23;32.98;98399.19;6079201;28;96680;-61